sensor_id;sensor_type;location;lat;lon;timestamp;pressure;altitude;pressure_sealevel;temperature;humidity
25650;BME280;13505;45.196;5.696;2022-11-15T05:01:29;98913.72;;;11.28;100.00
25650;BME280;13505;45.196;5.696;2022-11-15T05:06:19;98908.53;;;11.26;100.00
25650;BME280;13505;45.196;5.696;2022-11-15T05:11:09;98896.75;;;11.16;100.00
25650;BME280;13505;45.196;5.696;2022-11-15T05:16:00;98891.03;;;11.08;100.00
25650;BME280;13505;45.196;5.696;2022-11-15T05:20:50;98892.69;;;11.26;100.00
25650;BME280;13505;45.196;5.696;2022-11-15T05:25:40;98884.84;;;11.25;100.00
25650;BME280;13505;45.196;5.696;2022-11-15T05:30:31;98870.72;;;11.26;100.00
25650;BME280;13505;45.196;5.696;2022-11-15T05:35:36;98875.56;;;11.34;100.00
25650;BME280;13505;45.196;5.696;2022-11-15T05:40:29;98872.84;;;11.35;100.00
25650;BME280;13505;45.196;5.696;2022-11-15T05:45:20;98869.28;;;11.36;100.00
25650;BME280;13505;45.196;5.696;2022-11-15T05:50:12;98867.38;;;11.22;100.00
25650;BME280;13505;45.196;5.696;2022-11-15T05:55:06;98864.00;;;11.36;100.00
25650;BME280;13505;45.196;5.696;2022-11-15T05:59:57;98859.91;;;11.30;100.00
25650;BME280;13505;45.196;5.696;2022-11-15T06:04:48;98857.59;;;11.40;100.00
25650;BME280;13505;45.196;5.696;2022-11-15T06:09:38;98853.63;;;11.33;100.00
25650;BME280;13505;45.196;5.696;2022-11-15T06:14:28;98850.63;;;11.39;100.00
25650;BME280;13505;45.196;5.696;2022-11-15T06:19:19;98853.13;;;11.09;100.00
25650;BME280;13505;45.196;5.696;2022-11-15T06:24:10;98855.22;;;10.86;100.00
25650;BME280;13505;45.196;5.696;2022-11-15T06:29:02;98856.16;;;10.85;100.00
25650;BME280;13505;45.196;5.696;2022-11-15T06:33:53;98860.81;;;11.13;100.00
25650;BME280;13505;45.196;5.696;2022-11-15T06:38:44;98859.25;;;11.09;100.00
25650;BME280;13505;45.196;5.696;2022-11-15T06:43:35;98861.91;;;11.25;100.00
25650;BME280;13505;45.196;5.696;2022-11-15T06:48:26;98864.84;;;11.21;100.00
25650;BME280;13505;45.196;5.696;2022-11-15T06:53:17;98869.56;;;11.14;100.00
25650;BME280;13505;45.196;5.696;2022-11-15T06:58:07;98862.53;;;11.30;100.00
25650;BME280;13505;45.196;5.696;2022-11-15T07:02:59;98864.16;;;11.17;100.00
25650;BME280;13505;45.196;5.696;2022-11-15T07:07:51;98858.78;;;11.35;100.00
25650;BME280;13505;45.196;5.696;2022-11-15T07:12:47;98868.13;;;11.24;100.00
25650;BME280;13505;45.196;5.696;2022-11-15T07:17:37;98853.84;;;11.28;100.00
25650;BME280;13505;45.196;5.696;2022-11-15T07:22:27;98852.25;;;11.42;100.00
25650;BME280;13505;45.196;5.696;2022-11-15T07:27:18;98847.13;;;11.23;100.00
25650;BME280;13505;45.196;5.696;2022-11-15T07:32:09;98845.75;;;11.31;100.00
25650;BME280;13505;45.196;5.696;2022-11-15T07:36:59;98868.59;;;11.33;100.00
25650;BME280;13505;45.196;5.696;2022-11-15T07:41:49;98862.81;;;11.42;100.00
25650;BME280;13505;45.196;5.696;2022-11-15T07:47:00;98856.34;;;11.48;100.00
25650;BME280;13505;45.196;5.696;2022-11-15T07:51:50;98854.44;;;11.34;100.00
25650;BME280;13505;45.196;5.696;2022-11-15T07:56:40;98854.31;;;11.53;100.00
25650;BME280;13505;45.196;5.696;2022-11-15T08:01:31;98851.75;;;11.51;100.00
25650;BME280;13505;45.196;5.696;2022-11-15T08:06:21;98856.09;;;11.52;100.00
25650;BME280;13505;45.196;5.696;2022-11-15T08:11:12;98846.78;;;11.45;100.00
25650;BME280;13505;45.196;5.696;2022-11-15T08:16:02;98846.97;;;11.58;100.00
25650;BME280;13505;45.196;5.696;2022-11-15T08:20:59;98852.06;;;11.77;100.00
25650;BME280;13505;45.196;5.696;2022-11-15T08:25:49;98847.47;;;11.65;100.00
25650;BME280;13505;45.196;5.696;2022-11-15T08:30:41;98839.53;;;11.81;100.00
25650;BME280;13505;45.196;5.696;2022-11-15T08:35:32;98831.28;;;11.87;100.00
25650;BME280;13505;45.196;5.696;2022-11-15T08:40:22;98830.09;;;11.93;100.00
25650;BME280;13505;45.196;5.696;2022-11-15T08:45:13;98826.31;;;11.97;100.00
25650;BME280;13505;45.196;5.696;2022-11-15T08:50:04;98823.19;;;11.90;100.00
25650;BME280;13505;45.196;5.696;2022-11-15T08:54:55;98814.13;;;12.10;100.00
25650;BME280;13505;45.196;5.696;2022-11-15T08:59:45;98808.75;;;12.12;100.00
25650;BME280;13505;45.196;5.696;2022-11-15T09:04:35;98806.84;;;12.14;100.00
25650;BME280;13505;45.196;5.696;2022-11-15T09:09:26;98794.94;;;12.37;100.00
25650;BME280;13505;45.196;5.696;2022-11-15T09:14:16;98799.06;;;12.27;100.00
25650;BME280;13505;45.196;5.696;2022-11-15T09:19:06;98796.16;;;12.46;100.00
25650;BME280;13505;45.196;5.696;2022-11-15T09:23:57;98789.31;;;12.58;100.00
25650;BME280;13505;45.196;5.696;2022-11-15T09:28:48;98788.44;;;12.57;100.00
25650;BME280;13505;45.196;5.696;2022-11-15T09:33:39;98774.84;;;12.64;100.00
25650;BME280;13505;45.196;5.696;2022-11-15T09:38:29;98774.38;;;12.72;100.00
25650;BME280;13505;45.196;5.696;2022-11-15T09:48:55;98756.22;;;12.94;100.00
25650;BME280;13505;45.196;5.696;2022-11-15T10:04:06;98745.00;;;13.33;100.00
25650;BME280;13505;45.196;5.696;2022-11-15T10:09:03;98744.91;;;13.49;100.00
25650;BME280;13505;45.196;5.696;2022-11-15T10:14:05;98740.09;;;13.68;100.00
25650;BME280;13505;45.196;5.696;2022-11-15T10:23:53;98709.25;;;13.80;97.61
25650;BME280;13505;45.196;5.696;2022-11-15T10:28:44;98706.56;;;14.08;97.46
25650;BME280;13505;45.196;5.696;2022-11-15T10:33:39;98692.66;;;14.17;97.25
25650;BME280;13505;45.196;5.696;2022-11-15T10:38:29;98691.84;;;14.30;97.04
25650;BME280;13505;45.196;5.696;2022-11-15T10:43:19;98685.78;;;14.02;97.74
25650;BME280;13505;45.196;5.696;2022-11-15T10:53:04;98657.38;;;13.63;98.33
25650;BME280;13505;45.196;5.696;2022-11-15T10:58:05;98649.16;;;13.81;98.10
25650;BME280;13505;45.196;5.696;2022-11-15T11:07:55;98622.84;;;13.65;96.54
25650;BME280;13505;45.196;5.696;2022-11-15T11:12:46;98603.84;;;14.23;86.88
25650;BME280;13505;45.196;5.696;2022-11-15T11:18:03;98594.84;;;14.38;84.61
25650;BME280;13505;45.196;5.696;2022-11-15T11:33:22;98585.19;;;14.24;88.77
25650;BME280;13505;45.196;5.696;2022-11-15T11:43:34;98553.19;;;14.15;90.09
25650;BME280;13505;45.196;5.696;2022-11-15T11:48:47;98538.22;;;14.51;88.61
25650;BME280;13505;45.196;5.696;2022-11-15T11:53:42;98527.06;;;14.59;86.56
25650;BME280;13505;45.196;5.696;2022-11-15T11:58:44;98509.91;;;14.76;82.72
25650;BME280;13505;45.196;5.696;2022-11-15T12:03:55;98510.41;;;14.57;86.69
25650;BME280;13505;45.196;5.696;2022-11-15T12:14:24;98514.28;;;14.40;88.81
25650;BME280;13505;45.196;5.696;2022-11-15T12:19:15;98483.63;;;14.60;86.05
25650;BME280;13505;45.196;5.696;2022-11-15T12:29:16;98492.00;;;15.27;78.90
25650;BME280;13505;45.196;5.696;2022-11-15T12:39:12;98477.78;;;15.51;79.02
25650;BME280;13505;45.196;5.696;2022-11-15T12:44:04;98470.19;;;15.46;79.26
25650;BME280;13505;45.196;5.696;2022-11-15T12:49:11;98466.66;;;15.45;82.12
25650;BME280;13505;45.196;5.696;2022-11-15T13:04:38;98450.78;;;15.10;86.11
25650;BME280;13505;45.196;5.696;2022-11-15T13:19:29;98396.72;;;15.45;81.41
25650;BME280;13505;45.196;5.696;2022-11-15T13:24:20;98386.91;;;15.80;79.56
25650;BME280;13505;45.196;5.696;2022-11-15T13:29:18;98380.44;;;15.72;80.10
25650;BME280;13505;45.196;5.696;2022-11-15T13:34:23;98367.84;;;15.74;79.31
25650;BME280;13505;45.196;5.696;2022-11-15T13:39:34;98352.72;;;15.75;80.34
25650;BME280;13505;45.196;5.696;2022-11-15T13:44:29;98354.91;;;15.81;79.15
25650;BME280;13505;45.196;5.696;2022-11-15T13:49:29;98343.41;;;15.81;79.87
25650;BME280;13505;45.196;5.696;2022-11-15T13:54:45;98334.63;;;15.69;79.97
25650;BME280;13505;45.196;5.696;2022-11-15T13:59:45;98329.31;;;15.69;81.10
25650;BME280;13505;45.196;5.696;2022-11-15T14:04:38;98333.69;;;15.58;83.99
25650;BME280;13505;45.196;5.696;2022-11-15T14:09:38;98322.44;;;15.55;85.13
25650;BME280;13505;45.196;5.696;2022-11-15T14:14:29;98318.59;;;15.47;86.25
25650;BME280;13505;45.196;5.696;2022-11-15T14:24:17;98304.97;;;15.18;88.47
25650;BME280;13505;45.196;5.696;2022-11-15T14:34:13;98293.97;;;15.34;86.54
25650;BME280;13505;45.196;5.696;2022-11-15T14:39:03;98292.41;;;15.31;86.46
25650;BME280;13505;45.196;5.696;2022-11-15T14:43:55;98291.19;;;15.35;89.74
25650;BME280;13505;45.196;5.696;2022-11-15T14:48:45;98287.22;;;15.30;90.98
25650;BME280;13505;45.196;5.696;2022-11-15T14:53:35;98284.31;;;15.21;92.87
25650;BME280;13505;45.196;5.696;2022-11-15T14:58:26;98285.53;;;14.83;95.03
25650;BME280;13505;45.196;5.696;2022-11-15T15:03:16;98283.59;;;14.85;95.48
25650;BME280;13505;45.196;5.696;2022-11-15T15:08:06;98271.28;;;14.84;95.76
25650;BME280;13505;45.196;5.696;2022-11-15T15:12:57;98281.19;;;14.82;95.69
25650;BME280;13505;45.196;5.696;2022-11-15T15:17:47;98274.66;;;14.75;94.27
25650;BME280;13505;45.196;5.696;2022-11-15T15:22:38;98267.97;;;14.69;95.27
25650;BME280;13505;45.196;5.696;2022-11-15T15:27:29;98261.59;;;14.60;93.42
25650;BME280;13505;45.196;5.696;2022-11-15T15:32:19;98256.22;;;14.73;93.02
25650;BME280;13505;45.196;5.696;2022-11-15T15:37:22;98250.72;;;14.63;95.66
25650;BME280;13505;45.196;5.696;2022-11-15T15:42:14;98235.41;;;14.56;98.36
25650;BME280;13505;45.196;5.696;2022-11-15T15:47:11;98234.44;;;14.45;99.56
25650;BME280;13505;45.196;5.696;2022-11-15T15:52:01;98231.41;;;14.38;100.00
25650;BME280;13505;45.196;5.696;2022-11-15T15:56:52;98218.44;;;14.11;100.00
25650;BME280;13505;45.196;5.696;2022-11-15T16:01:42;98216.31;;;14.28;99.90
25650;BME280;13505;45.196;5.696;2022-11-15T16:06:38;98215.94;;;14.32;100.00
25650;BME280;13505;45.196;5.696;2022-11-15T16:11:29;98200.16;;;14.31;100.00
25650;BME280;13505;45.196;5.696;2022-11-15T16:16:21;98188.09;;;14.27;100.00
25650;BME280;13505;45.196;5.696;2022-11-15T16:21:11;98183.75;;;14.26;100.00
25650;BME280;13505;45.196;5.696;2022-11-15T16:26:02;98188.69;;;14.19;100.00
25650;BME280;13505;45.196;5.696;2022-11-15T16:31:03;98190.88;;;14.14;100.00
25650;BME280;13505;45.196;5.696;2022-11-15T16:35:54;98176.97;;;13.99;100.00
25650;BME280;13505;45.196;5.696;2022-11-15T16:40:45;98181.38;;;13.87;100.00
25650;BME280;13505;45.196;5.696;2022-11-15T16:45:35;98172.00;;;13.94;100.00
25650;BME280;13505;45.196;5.696;2022-11-15T16:50:28;98180.38;;;14.12;97.82
25650;BME280;13505;45.196;5.696;2022-11-15T16:55:20;98169.84;;;13.99;98.14
25650;BME280;13505;45.196;5.696;2022-11-15T17:00:12;98174.34;;;14.10;97.30
25650;BME280;13505;45.196;5.696;2022-11-15T17:05:06;98176.03;;;14.11;97.48
25650;BME280;13505;45.196;5.696;2022-11-15T17:09:56;98178.94;;;14.19;95.98
25650;BME280;13505;45.196;5.696;2022-11-15T17:14:47;98165.06;;;14.16;95.91
25650;BME280;13505;45.196;5.696;2022-11-15T17:19:37;98155.69;;;14.34;92.03
25650;BME280;13505;45.196;5.696;2022-11-15T17:24:27;98166.53;;;14.54;88.64
25650;BME280;13505;45.196;5.696;2022-11-15T17:29:18;98157.69;;;15.11;82.73
25650;BME280;13505;45.196;5.696;2022-11-15T17:34:08;98143.50;;;15.33;80.10
25650;BME280;13505;45.196;5.696;2022-11-15T17:38:58;98134.50;;;15.24;80.78
25650;BME280;13505;45.196;5.696;2022-11-15T17:43:49;98129.25;;;15.34;79.33
25650;BME280;13505;45.196;5.696;2022-11-15T17:48:39;98106.56;;;14.97;84.03
25650;BME280;13505;45.196;5.696;2022-11-15T17:53:32;98117.56;;;14.70;87.76
25650;BME280;13505;45.196;5.696;2022-11-15T17:58:23;98117.81;;;14.44;91.43
25650;BME280;13505;45.196;5.696;2022-11-15T18:03:14;98130.50;;;14.51;90.71
25650;BME280;13505;45.196;5.696;2022-11-15T18:08:05;98122.03;;;14.46;91.97
25650;BME280;13505;45.196;5.696;2022-11-15T18:12:55;98112.16;;;14.37;92.69
25650;BME280;13505;45.196;5.696;2022-11-15T18:17:46;98109.75;;;14.34;93.16
25650;BME280;13505;45.196;5.696;2022-11-15T18:22:36;98109.25;;;14.17;95.33
25650;BME280;13505;45.196;5.696;2022-11-15T18:27:26;98115.88;;;14.23;94.99
25650;BME280;13505;45.196;5.696;2022-11-15T18:32:17;98108.41;;;14.17;95.54
25650;BME280;13505;45.196;5.696;2022-11-15T18:37:07;98106.47;;;14.07;97.27
25650;BME280;13505;45.196;5.696;2022-11-15T18:41:58;98107.81;;;14.02;99.13
25650;BME280;13505;45.196;5.696;2022-11-15T18:46:50;98115.75;;;14.02;98.68
25650;BME280;13505;45.196;5.696;2022-11-15T18:51:40;98114.31;;;13.98;100.00
25650;BME280;13505;45.196;5.696;2022-11-15T18:56:31;98100.78;;;13.89;100.00
25650;BME280;13505;45.196;5.696;2022-11-15T19:01:36;98106.94;;;13.90;100.00
25650;BME280;13505;45.196;5.696;2022-11-15T19:06:27;98098.13;;;13.78;100.00
25650;BME280;13505;45.196;5.696;2022-11-15T19:11:23;98103.28;;;13.79;100.00
25650;BME280;13505;45.196;5.696;2022-11-15T19:16:16;98095.59;;;13.76;100.00
25650;BME280;13505;45.196;5.696;2022-11-15T19:21:10;98097.50;;;13.74;100.00
25650;BME280;13505;45.196;5.696;2022-11-15T19:26:02;98080.53;;;13.65;100.00
25650;BME280;13505;45.196;5.696;2022-11-15T19:30:53;98076.16;;;13.64;100.00
25650;BME280;13505;45.196;5.696;2022-11-15T19:35:51;98069.03;;;13.53;100.00
25650;BME280;13505;45.196;5.696;2022-11-15T19:40:41;98047.59;;;13.57;100.00
25650;BME280;13505;45.196;5.696;2022-11-15T19:45:31;98047.59;;;13.57;100.00
25650;BME280;13505;45.196;5.696;2022-11-15T19:50:22;98075.75;;;13.46;100.00
25650;BME280;13505;45.196;5.696;2022-11-15T19:55:12;98069.28;;;13.50;100.00
25650;BME280;13505;45.196;5.696;2022-11-15T20:00:03;98061.63;;;13.34;100.00
25650;BME280;13505;45.196;5.696;2022-11-15T20:04:55;98063.31;;;13.35;100.00
25650;BME280;13505;45.196;5.696;2022-11-15T20:09:45;98063.94;;;13.39;100.00
25650;BME280;13505;45.196;5.696;2022-11-15T20:14:35;98063.84;;;13.52;100.00
25650;BME280;13505;45.196;5.696;2022-11-15T20:19:26;98064.72;;;13.52;100.00
25650;BME280;13505;45.196;5.696;2022-11-15T20:24:16;98066.28;;;13.55;100.00
25650;BME280;13505;45.196;5.696;2022-11-15T20:29:06;98057.59;;;13.53;100.00
25650;BME280;13505;45.196;5.696;2022-11-15T20:33:59;98068.81;;;13.57;100.00
25650;BME280;13505;45.196;5.696;2022-11-15T20:38:49;98083.13;;;13.54;100.00
25650;BME280;13505;45.196;5.696;2022-11-15T20:43:40;98089.84;;;13.47;100.00
25650;BME280;13505;45.196;5.696;2022-11-15T20:48:32;98108.25;;;13.48;100.00
25650;BME280;13505;45.196;5.696;2022-11-15T20:53:22;98116.00;;;13.51;100.00
25650;BME280;13505;45.196;5.696;2022-11-15T20:58:13;98113.34;;;13.51;100.00
25650;BME280;13505;45.196;5.696;2022-11-15T21:03:04;98120.19;;;13.54;100.00
25650;BME280;13505;45.196;5.696;2022-11-15T21:07:55;98125.16;;;13.59;100.00
25650;BME280;13505;45.196;5.696;2022-11-15T21:12:46;98125.50;;;13.54;100.00
25650;BME280;13505;45.196;5.696;2022-11-15T21:17:36;98128.16;;;13.54;100.00
25650;BME280;13505;45.196;5.696;2022-11-15T21:22:27;98143.59;;;13.60;100.00
25650;BME280;13505;45.196;5.696;2022-11-15T21:27:17;98130.88;;;13.65;100.00
25650;BME280;13505;45.196;5.696;2022-11-15T21:32:08;98165.06;;;13.68;100.00
25650;BME280;13505;45.196;5.696;2022-11-15T21:36:59;98167.00;;;13.66;100.00
25650;BME280;13505;45.196;5.696;2022-11-15T21:41:49;98155.44;;;13.67;100.00
25650;BME280;13505;45.196;5.696;2022-11-15T21:46:39;98153.22;;;13.61;100.00
25650;BME280;13505;45.196;5.696;2022-11-15T21:51:30;98167.00;;;13.66;100.00
25650;BME280;13505;45.196;5.696;2022-11-15T21:56:21;98168.78;;;13.66;100.00
25650;BME280;13505;45.196;5.696;2022-11-15T22:01:11;98156.75;;;13.62;100.00
25650;BME280;13505;45.196;5.696;2022-11-15T22:06:20;98171.78;;;13.61;100.00
25650;BME280;13505;45.196;5.696;2022-11-15T22:11:10;98170.81;;;13.62;100.00
25650;BME280;13505;45.196;5.696;2022-11-15T22:16:01;98157.69;;;13.61;100.00
25650;BME280;13505;45.196;5.696;2022-11-15T22:20:57;98151.75;;;13.46;100.00
25650;BME280;13505;45.196;5.696;2022-11-15T22:25:47;98166.88;;;13.44;100.00
25650;BME280;13505;45.196;5.696;2022-11-15T22:30:38;98182.66;;;13.45;100.00
25650;BME280;13505;45.196;5.696;2022-11-15T22:35:30;98178.34;;;13.44;100.00
25650;BME280;13505;45.196;5.696;2022-11-15T22:40:20;98163.38;;;13.43;100.00
25650;BME280;13505;45.196;5.696;2022-11-15T22:45:10;98190.53;;;13.34;100.00
25650;BME280;13505;45.196;5.696;2022-11-15T22:50:00;98185.31;;;13.32;100.00
25650;BME280;13505;45.196;5.696;2022-11-15T22:54:51;98165.00;;;13.33;100.00
25650;BME280;13505;45.196;5.696;2022-11-15T22:59:41;98166.88;;;13.19;100.00
